createdAt,value
2023-06-30T00:00:23.216Z,2.40
2023-06-30T00:02:50.352Z,2.25
2023-06-30T00:05:17.486Z,2.45
2023-06-30T00:07:45.338Z,2.90
2023-06-30T00:10:12.482Z,2.50
2023-06-30T00:12:39.650Z,2.53
2023-06-30T00:15:07.365Z,2.45
2023-06-30T00:17:34.545Z,2.53
2023-06-30T00:20:06.683Z,2.38
2023-06-30T00:22:37.833Z,3.13
2023-06-30T00:25:06.258Z,2.63
2023-06-30T00:27:33.313Z,2.20
2023-06-30T00:30:00.414Z,2.10
2023-06-30T00:32:32.631Z,2.70
2023-06-30T00:35:00.583Z,2.65
2023-06-30T00:37:28.067Z,2.60
2023-06-30T00:39:55.117Z,2.58
2023-06-30T00:42:22.161Z,2.70
2023-06-30T00:44:49.161Z,2.45
2023-06-30T00:47:16.401Z,2.78
2023-06-30T00:49:43.737Z,2.80
2023-06-30T00:52:10.886Z,2.72
2023-06-30T00:54:38.370Z,2.88
2023-06-30T00:57:07.962Z,2.80
2023-06-30T00:59:34.994Z,2.33
2023-06-30T01:02:19.584Z,2.80
2023-06-30T01:05:09.525Z,2.78
2023-06-30T01:08:02.666Z,2.97
2023-06-30T01:10:32.524Z,2.67
2023-06-30T01:13:02.455Z,2.58
2023-06-30T01:15:30.216Z,2.42
2023-06-30T01:18:01.623Z,2.60
2023-06-30T01:20:33.876Z,2.45
2023-06-30T01:23:27.192Z,2.45
2023-06-30T01:25:55.516Z,2.35
2023-06-30T01:28:22.982Z,3.08
2023-06-30T01:30:51.349Z,2.90
2023-06-30T01:33:18.549Z,2.50
2023-06-30T01:35:45.793Z,2.67
2023-06-30T01:38:13.359Z,3.50
2023-06-30T01:40:40.648Z,2.92
2023-06-30T01:43:08.146Z,2.90
2023-06-30T01:45:36.092Z,2.63
2023-06-30T01:48:03.372Z,2.92
2023-06-30T01:50:32.840Z,2.85
2023-06-30T01:53:00.877Z,3.10
2023-06-30T01:55:28.198Z,2.85
2023-06-30T01:57:55.296Z,2.97
2023-06-30T02:00:22.456Z,3.17
2023-06-30T02:02:49.690Z,3.35
2023-06-30T02:05:16.836Z,2.90
2023-06-30T02:07:43.974Z,2.85
2023-06-30T02:10:11.332Z,3.40
2023-06-30T02:12:38.441Z,3.17
2023-06-30T02:15:06.239Z,3.05
2023-06-30T02:17:34.439Z,3.40
2023-06-30T02:20:02.493Z,3.65
2023-06-30T02:22:29.665Z,3.42
2023-06-30T02:24:57.661Z,3.58
2023-06-30T02:27:25.727Z,3.45
2023-06-30T02:29:52.928Z,3.45
2023-06-30T02:32:20.453Z,3.58
2023-06-30T02:34:47.703Z,3.03
2023-06-30T02:37:15.222Z,3.70
2023-06-30T02:39:42.455Z,3.90
2023-06-30T02:42:09.572Z,4.05
2023-06-30T02:44:36.691Z,3.75
2023-06-30T02:47:04.576Z,3.53
2023-06-30T02:49:34.318Z,3.42
2023-06-30T02:52:01.711Z,3.45
2023-06-30T02:54:28.814Z,3.50
2023-06-30T02:56:55.884Z,3.35
2023-06-30T02:59:23.132Z,3.50
2023-06-30T03:01:50.922Z,3.45
2023-06-30T03:04:18.163Z,3.90
2023-06-30T03:06:45.165Z,3.85
2023-06-30T03:09:12.232Z,4.03
2023-06-30T03:11:39.249Z,3.97
2023-06-30T03:14:06.286Z,3.92
2023-06-30T03:16:33.646Z,3.63
2023-06-30T03:19:00.696Z,4.38
2023-06-30T03:21:27.740Z,4.18
2023-06-30T03:23:54.838Z,3.38
2023-06-30T03:26:21.969Z,3.60
2023-06-30T03:28:49.012Z,3.72
2023-06-30T03:31:16.093Z,3.33
2023-06-30T03:33:43.169Z,4.53
2023-06-30T03:36:11.827Z,3.75
2023-06-30T03:38:38.931Z,3.75
2023-06-30T03:41:06.031Z,3.72
2023-06-30T03:43:34.184Z,4.00
2023-06-30T03:46:01.482Z,3.40
2023-06-30T03:48:28.578Z,3.90
2023-06-30T03:50:55.761Z,4.07
2023-06-30T03:53:23.229Z,3.83
2023-06-30T03:55:50.318Z,3.85
2023-06-30T03:58:17.385Z,4.72
2023-06-30T04:00:44.456Z,4.10
2023-06-30T04:03:11.974Z,4.22
2023-06-30T04:05:40.305Z,4.60
2023-06-30T04:08:08.266Z,3.92
2023-06-30T04:10:35.453Z,4.53
2023-06-30T04:13:08.349Z,4.03
2023-06-30T04:15:35.413Z,4.28
2023-06-30T04:18:02.865Z,3.90
2023-06-30T04:20:31.300Z,3.83
2023-06-30T04:22:58.357Z,4.55
2023-06-30T04:25:25.490Z,4.55
2023-06-30T04:27:52.578Z,4.57
2023-06-30T04:30:19.847Z,4.15
2023-06-30T04:32:47.792Z,3.75
2023-06-30T04:35:15.963Z,4.05
2023-06-30T04:37:43.117Z,3.80
2023-06-30T04:40:10.678Z,4.03
2023-06-30T04:42:38.264Z,4.03
2023-06-30T04:45:06.945Z,4.03
2023-06-30T04:47:34.103Z,4.40
2023-06-30T04:50:01.184Z,3.90
2023-06-30T04:52:28.683Z,4.78
2023-06-30T04:54:57.407Z,4.22
2023-06-30T04:57:24.686Z,3.65
2023-06-30T04:59:52.282Z,4.15
2023-06-30T05:02:19.641Z,4.10
2023-06-30T05:04:46.770Z,4.20
2023-06-30T05:07:13.913Z,4.82
2023-06-30T05:09:41.061Z,4.57
2023-06-30T05:12:08.860Z,4.60
2023-06-30T05:14:36.272Z,4.40
2023-06-30T05:17:03.606Z,4.60
2023-06-30T05:19:30.736Z,4.78
2023-06-30T05:21:57.861Z,5.22
2023-06-30T05:24:25.213Z,4.70
2023-06-30T05:26:54.633Z,4.40
2023-06-30T05:29:21.796Z,4.72
2023-06-30T05:31:49.269Z,4.28
2023-06-30T05:34:17.086Z,5.18
2023-06-30T05:36:47.460Z,4.70
2023-06-30T05:39:15.340Z,4.88
2023-06-30T05:41:42.668Z,5.00
2023-06-30T05:44:10.496Z,5.18
2023-06-30T05:46:40.915Z,4.80
2023-06-30T05:49:08.342Z,4.97
2023-06-30T05:51:36.916Z,5.55
2023-06-30T05:54:04.498Z,6.18
2023-06-30T05:56:32.103Z,5.55
2023-06-30T05:58:59.955Z,6.30
2023-06-30T06:01:27.117Z,7.38
2023-06-30T06:03:54.460Z,6.68
2023-06-30T06:06:23.809Z,7.32
2023-06-30T06:08:50.953Z,7.47
2023-06-30T06:11:18.357Z,7.00
2023-06-30T06:13:48.272Z,8.00
2023-06-30T06:16:15.409Z,7.85
2023-06-30T06:18:42.450Z,7.05
2023-06-30T06:21:09.502Z,8.40
2023-06-30T06:23:36.866Z,7.15
2023-06-30T06:26:03.965Z,6.55
2023-06-30T06:28:33.775Z,6.45
2023-06-30T06:31:00.923Z,6.65
2023-06-30T06:33:28.038Z,6.18
2023-06-30T06:35:55.119Z,5.43
2023-06-30T06:38:22.196Z,5.57
2023-06-30T06:40:49.342Z,5.88
2023-06-30T06:43:16.536Z,5.70
2023-06-30T06:45:44.532Z,6.65
2023-06-30T06:48:29.356Z,5.28
2023-06-30T06:51:02.271Z,4.85
2023-06-30T06:53:35.618Z,5.38
2023-06-30T06:56:05.026Z,5.45
2023-06-30T06:58:42.116Z,5.07
2023-06-30T07:01:11.123Z,4.82
2023-06-30T07:03:38.532Z,4.38
2023-06-30T07:06:07.473Z,4.63
2023-06-30T07:08:37.816Z,4.70
2023-06-30T07:11:05.567Z,4.95
2023-06-30T07:13:32.636Z,4.45
2023-06-30T07:15:59.851Z,5.20
2023-06-30T07:18:27.053Z,4.22
2023-06-30T07:20:55.568Z,4.43
2023-06-30T07:23:26.456Z,4.38
2023-06-30T07:25:54.262Z,3.97
2023-06-30T07:28:21.391Z,3.95
2023-06-30T07:30:49.544Z,3.38
2023-06-30T07:33:18.420Z,4.35
2023-06-30T07:35:45.962Z,3.50
2023-06-30T07:38:13.296Z,3.58
2023-06-30T07:43:10.409Z,3.42
2023-06-30T07:45:37.559Z,4.03
2023-06-30T07:48:05.944Z,3.97
2023-06-30T07:50:33.082Z,3.90
2023-06-30T07:53:00.203Z,3.47
2023-06-30T07:55:27.266Z,3.72
2023-06-30T07:57:54.491Z,3.58
2023-06-30T08:00:21.667Z,3.58
2023-06-30T08:02:49.226Z,3.55
2023-06-30T08:05:16.586Z,3.70
2023-06-30T08:07:50.293Z,3.40
2023-06-30T08:10:19.648Z,3.38
2023-06-30T08:12:47.171Z,3.60
2023-06-30T08:15:14.311Z,3.90
2023-06-30T08:17:50.767Z,3.70
2023-06-30T08:20:23.001Z,3.65
2023-06-30T08:22:50.221Z,3.90
2023-06-30T08:25:17.457Z,2.92
2023-06-30T08:27:44.769Z,3.40
2023-06-30T08:30:11.981Z,3.72
2023-06-30T08:32:39.335Z,3.67
2023-06-30T08:35:06.746Z,3.83
2023-06-30T08:37:33.997Z,3.60
2023-06-30T08:40:02.151Z,3.50
2023-06-30T08:42:36.157Z,3.22
2023-06-30T08:45:04.760Z,3.50
2023-06-30T08:47:33.771Z,3.60
2023-06-30T08:50:01.911Z,3.40
2023-06-30T08:52:30.104Z,2.60
2023-06-30T08:54:57.237Z,3.40
2023-06-30T08:57:26.188Z,3.10
2023-06-30T08:59:53.345Z,3.67
2023-06-30T09:02:21.191Z,3.53
2023-06-30T09:04:48.498Z,3.30
2023-06-30T09:07:27.685Z,3.05
2023-06-30T09:10:00.106Z,3.45
2023-06-30T09:12:28.680Z,3.03
2023-06-30T09:15:00.989Z,3.35
2023-06-30T09:17:29.100Z,4.45
2023-06-30T09:19:56.196Z,3.28
2023-06-30T09:22:53.908Z,3.13
2023-06-30T09:25:42.690Z,2.85
2023-06-30T09:28:15.610Z,2.95
2023-06-30T09:30:48.718Z,3.53
2023-06-30T09:33:17.969Z,3.25
2023-06-30T09:35:48.002Z,3.22
2023-06-30T09:38:18.105Z,2.67
2023-06-30T09:40:51.217Z,3.60
2023-06-30T09:43:24.725Z,2.88
2023-06-30T09:45:57.067Z,2.78
2023-06-30T09:48:33.198Z,3.08
2023-06-30T09:51:00.937Z,2.85
2023-06-30T09:53:39.612Z,3.05
2023-06-30T09:56:09.967Z,3.13
2023-06-30T09:58:40.213Z,3.22
2023-06-30T10:01:09.437Z,2.60
2023-06-30T10:03:52.100Z,2.80
2023-06-30T10:06:21.824Z,3.20
2023-06-30T10:08:52.346Z,2.85
2023-06-30T10:11:24.257Z,2.88
2023-06-30T10:13:56.134Z,2.60
2023-06-30T10:16:23.941Z,2.65
2023-06-30T10:18:52.678Z,2.63
2023-06-30T10:21:25.700Z,2.73
2023-06-30T10:23:54.085Z,2.50
2023-06-30T10:26:22.563Z,3.50
2023-06-30T10:28:50.390Z,2.70
2023-06-30T10:31:18.036Z,2.85
2023-06-30T10:33:45.446Z,2.25
2023-06-30T10:36:14.456Z,2.80
2023-06-30T10:38:44.420Z,2.63
2023-06-30T10:41:20.786Z,2.55
2023-06-30T10:44:03.251Z,2.47
2023-06-30T10:46:57.281Z,2.63
2023-06-30T10:49:35.552Z,2.75
2023-06-30T10:52:10.275Z,2.40
2023-06-30T10:54:48.501Z,2.38
2023-06-30T10:57:26.175Z,2.47
2023-06-30T11:00:11.500Z,2.53
2023-06-30T11:02:56.149Z,2.22
2023-06-30T11:05:34.919Z,2.60
2023-06-30T11:08:10.285Z,2.75
2023-06-30T11:10:46.366Z,2.80
2023-06-30T11:13:13.831Z,2.40
2023-06-30T11:15:44.014Z,2.70
2023-06-30T11:18:22.448Z,2.50
2023-06-30T11:21:00.764Z,2.40
2023-06-30T11:23:38.570Z,2.38
2023-06-30T11:26:21.636Z,2.72
2023-06-30T11:28:49.619Z,2.35
2023-06-30T11:31:17.617Z,2.50
2023-06-30T11:33:46.437Z,2.33
2023-06-30T11:36:14.801Z,2.40
2023-06-30T11:38:51.848Z,2.47
2023-06-30T11:41:20.489Z,2.22
2023-06-30T11:43:52.310Z,2.47
2023-06-30T11:46:19.593Z,2.30
2023-06-30T11:48:46.709Z,2.33
2023-06-30T11:51:13.818Z,2.10
2023-06-30T11:53:47.656Z,2.40
2023-06-30T11:56:14.797Z,2.15
2023-06-30T11:58:59.987Z,2.25
2023-06-30T12:01:27.659Z,2.30
2023-06-30T12:04:19.729Z,2.42
2023-06-30T12:06:47.564Z,2.00
2023-06-30T12:09:15.691Z,2.17
2023-06-30T12:11:49.931Z,2.53
2023-06-30T12:14:19.530Z,2.20
2023-06-30T12:16:51.083Z,2.00
2023-06-30T12:19:23.461Z,2.72
2023-06-30T12:22:02.036Z,2.22
2023-06-30T12:24:33.748Z,2.28
2023-06-30T12:27:06.361Z,2.13
2023-06-30T12:29:35.262Z,1.85
2023-06-30T12:32:12.698Z,2.08
2023-06-30T12:34:40.626Z,2.40
2023-06-30T12:37:08.197Z,1.90
2023-06-30T12:39:35.244Z,2.22
2023-06-30T12:42:02.436Z,2.13
2023-06-30T12:44:31.762Z,1.70
2023-06-30T12:47:04.682Z,2.17
2023-06-30T12:49:32.021Z,2.10
2023-06-30T12:52:01.811Z,2.40
2023-06-30T12:54:33.453Z,1.70
2023-06-30T12:57:00.582Z,1.77
2023-06-30T12:59:31.464Z,1.92
2023-06-30T13:01:58.527Z,2.20
2023-06-30T13:04:28.256Z,2.05
2023-06-30T13:06:55.503Z,2.00
2023-06-30T13:09:22.595Z,2.03
2023-06-30T13:11:50.029Z,2.15
2023-06-30T13:14:17.589Z,2.10
2023-06-30T13:16:44.769Z,1.80
2023-06-30T13:19:11.870Z,1.88
2023-06-30T13:21:38.937Z,2.38
2023-06-30T13:24:06.539Z,2.25
2023-06-30T13:26:35.376Z,1.92
2023-06-30T13:29:05.164Z,2.05
2023-06-30T13:31:32.485Z,2.00
2023-06-30T13:33:59.752Z,2.30
2023-06-30T13:36:28.986Z,2.13
2023-06-30T13:38:58.017Z,2.03
2023-06-30T13:41:27.220Z,2.65
2023-06-30T13:43:54.538Z,1.75
2023-06-30T13:46:22.216Z,1.83
2023-06-30T13:48:49.391Z,1.70
2023-06-30T13:51:16.478Z,1.90
2023-06-30T13:53:43.540Z,1.83
2023-06-30T13:56:10.638Z,2.17
2023-06-30T13:58:38.235Z,1.60
2023-06-30T14:01:06.639Z,1.63
2023-06-30T14:03:34.502Z,1.70
2023-06-30T14:06:01.633Z,1.98
2023-06-30T14:08:47.292Z,2.00
2023-06-30T14:11:19.115Z,1.70
2023-06-30T14:13:46.452Z,1.90
2023-06-30T14:16:13.609Z,2.03
2023-06-30T14:18:40.969Z,1.73
2023-06-30T14:21:08.129Z,1.63
2023-06-30T14:23:35.183Z,1.77
2023-06-30T14:26:02.991Z,1.77
2023-06-30T14:28:30.067Z,1.90
2023-06-30T14:30:57.165Z,1.65
2023-06-30T14:33:24.347Z,1.98
2023-06-30T14:35:51.411Z,1.60
2023-06-30T14:38:20.563Z,1.85
2023-06-30T14:40:49.293Z,1.58
2023-06-30T14:43:16.357Z,2.40
2023-06-30T14:45:43.637Z,1.90
2023-06-30T14:48:10.977Z,1.83
2023-06-30T14:50:38.085Z,2.25
2023-06-30T14:53:05.202Z,1.98
2023-06-30T14:55:32.298Z,2.05
2023-06-30T14:57:59.408Z,1.80
2023-06-30T15:00:26.579Z,2.10
2023-06-30T15:02:53.869Z,1.70
2023-06-30T15:05:21.603Z,1.75
2023-06-30T15:07:51.161Z,1.85
2023-06-30T15:10:18.718Z,2.38
2023-06-30T15:12:46.025Z,1.83
2023-06-30T15:15:13.248Z,1.80
2023-06-30T15:17:40.590Z,2.00
2023-06-30T15:20:08.907Z,2.08
2023-06-30T15:22:36.292Z,2.40
2023-06-30T15:25:04.644Z,2.15
2023-06-30T15:27:33.307Z,2.55
2023-06-30T15:30:00.620Z,3.85
2023-06-30T15:32:27.879Z,2.83
2023-06-30T15:34:55.049Z,2.20
2023-06-30T15:37:22.446Z,4.25
2023-06-30T15:39:49.966Z,1.88
2023-06-30T15:42:17.421Z,2.65
2023-06-30T15:44:44.524Z,2.33
2023-06-30T15:47:11.639Z,2.00
2023-06-30T15:49:38.726Z,2.05
2023-06-30T15:52:06.624Z,2.42
2023-06-30T15:54:33.690Z,1.90
2023-06-30T15:57:00.829Z,1.83
2023-06-30T15:59:27.856Z,1.77
2023-06-30T16:01:55.152Z,1.92
2023-06-30T16:04:22.287Z,1.70
2023-06-30T16:06:49.515Z,2.67
2023-06-30T16:09:16.645Z,2.25
2023-06-30T16:11:43.780Z,2.10
2023-06-30T16:14:11.181Z,2.05
2023-06-30T16:16:38.391Z,1.98
2023-06-30T16:19:05.467Z,1.70
2023-06-30T16:21:33.033Z,1.80
2023-06-30T16:24:00.052Z,1.88
2023-06-30T16:26:27.249Z,1.75
2023-06-30T16:28:54.356Z,2.20
2023-06-30T16:31:21.426Z,2.15
2023-06-30T16:33:48.622Z,2.53
2023-06-30T16:36:15.945Z,2.00
2023-06-30T16:38:44.406Z,1.80
2023-06-30T16:41:12.139Z,2.20
2023-06-30T16:43:39.612Z,2.38
2023-06-30T16:46:06.648Z,2.63
2023-06-30T16:48:34.150Z,2.50
2023-06-30T16:51:01.204Z,2.30
2023-06-30T16:53:28.281Z,2.28
2023-06-30T16:55:55.385Z,2.30
2023-06-30T16:58:26.400Z,2.45
2023-06-30T17:00:53.863Z,2.40
2023-06-30T17:03:21.209Z,2.30
2023-06-30T17:05:48.633Z,2.50
2023-06-30T17:08:16.119Z,2.22
2023-06-30T17:10:46.794Z,2.05
2023-06-30T17:13:15.669Z,2.08
2023-06-30T17:15:44.125Z,2.30
2023-06-30T17:18:12.413Z,2.75
2023-06-30T17:20:41.051Z,2.10
2023-06-30T17:23:09.093Z,2.50
2023-06-30T17:25:37.219Z,2.67
2023-06-30T17:28:05.727Z,2.92
2023-06-30T17:30:33.567Z,3.15
2023-06-30T17:33:01.373Z,3.30
2023-06-30T17:35:29.304Z,2.85
2023-06-30T17:37:57.367Z,2.63
2023-06-30T17:40:25.365Z,2.90
2023-06-30T17:42:53.167Z,3.20
2023-06-30T17:45:20.675Z,3.22
2023-06-30T17:47:48.376Z,3.80
2023-06-30T17:50:18.322Z,3.92
2023-06-30T17:52:46.337Z,3.35
2023-06-30T17:55:14.093Z,4.32
2023-06-30T17:57:41.636Z,3.90
2023-06-30T18:00:10.625Z,4.20
2023-06-30T18:02:39.193Z,4.03
2023-06-30T18:05:08.057Z,4.50
2023-06-30T18:07:36.678Z,4.65
2023-06-30T18:10:05.664Z,4.53
2023-06-30T18:12:34.469Z,3.90
2023-06-30T18:15:03.260Z,3.70
2023-06-30T18:17:32.079Z,4.55
2023-06-30T18:20:00.828Z,5.03
2023-06-30T18:22:29.630Z,4.75
2023-06-30T18:24:58.298Z,4.68
2023-06-30T18:27:27.071Z,4.80
2023-06-30T18:29:55.890Z,5.15
2023-06-30T18:32:24.718Z,5.13
2023-06-30T18:34:54.360Z,5.13
2023-06-30T18:37:23.042Z,5.43
2023-06-30T18:39:51.991Z,5.00
2023-06-30T18:42:20.761Z,5.50
2023-06-30T18:44:49.558Z,6.05
2023-06-30T18:47:18.419Z,5.25
2023-06-30T18:49:47.138Z,6.15
2023-06-30T18:52:16.851Z,5.68
2023-06-30T18:54:46.822Z,5.35
2023-06-30T18:57:16.381Z,5.38
2023-06-30T18:59:45.468Z,5.32
2023-06-30T19:02:14.194Z,4.65
2023-06-30T19:04:43.227Z,5.57
2023-06-30T19:07:11.968Z,4.88
2023-06-30T19:09:40.578Z,4.68
2023-06-30T19:12:09.740Z,4.75
2023-06-30T19:14:38.493Z,4.85
2023-06-30T19:17:07.283Z,4.78
2023-06-30T19:19:36.090Z,5.50
2023-06-30T19:22:04.897Z,5.18
2023-06-30T19:24:33.843Z,5.65
2023-06-30T19:27:02.695Z,4.95
2023-06-30T19:29:32.269Z,4.22
2023-06-30T19:32:01.066Z,4.82
2023-06-30T19:34:29.871Z,4.88
2023-06-30T19:37:00.427Z,5.38
2023-06-30T19:39:29.347Z,5.25
2023-06-30T19:42:01.199Z,5.32
2023-06-30T19:44:29.940Z,4.50
2023-06-30T19:46:58.691Z,4.82
2023-06-30T19:49:27.774Z,4.53
2023-06-30T19:51:56.621Z,4.90
2023-06-30T19:54:25.520Z,4.22
2023-06-30T19:56:55.233Z,4.20
2023-06-30T19:59:24.234Z,4.55
2023-06-30T20:01:56.440Z,4.55
2023-06-30T20:04:25.461Z,4.35
2023-06-30T20:06:54.108Z,4.72
2023-06-30T20:09:23.136Z,3.67
2023-06-30T20:11:52.246Z,4.18
2023-06-30T20:14:21.055Z,4.32
2023-06-30T20:16:50.059Z,4.90
2023-06-30T20:19:21.886Z,3.70
2023-06-30T20:21:50.725Z,4.72
2023-06-30T20:24:22.207Z,4.80
2023-06-30T20:26:51.051Z,5.45
2023-06-30T20:29:22.155Z,5.28
2023-06-30T20:31:50.871Z,4.93
2023-06-30T20:34:19.538Z,5.05
2023-06-30T20:36:48.342Z,5.88
2023-06-30T20:39:17.157Z,5.75
2023-06-30T20:41:45.827Z,5.25
2023-06-30T20:44:15.275Z,5.55
2023-06-30T20:46:43.864Z,5.30
2023-06-30T20:49:12.040Z,5.15
2023-06-30T20:51:40.678Z,5.03
2023-06-30T20:54:09.189Z,5.00
2023-06-30T20:56:37.372Z,5.03
2023-06-30T20:59:05.326Z,5.28
2023-06-30T21:01:32.454Z,5.30
2023-06-30T21:03:59.661Z,5.63
2023-06-30T21:06:28.553Z,5.50
2023-06-30T21:08:55.786Z,5.30
2023-06-30T21:11:22.817Z,5.07
2023-06-30T21:13:49.876Z,6.13
2023-06-30T21:16:17.044Z,5.30
2023-06-30T21:18:44.415Z,5.85
2023-06-30T21:21:11.547Z,5.95
2023-06-30T21:23:38.599Z,5.63
2023-06-30T21:26:05.749Z,6.43
2023-06-30T21:28:32.865Z,6.40
2023-06-30T21:31:00.223Z,6.05
2023-06-30T21:33:27.399Z,6.10
2023-06-30T21:35:54.504Z,6.05
2023-06-30T21:38:21.588Z,5.45
2023-06-30T21:40:48.940Z,5.25
2023-06-30T21:43:16.215Z,6.45
2023-06-30T21:45:43.274Z,6.38
2023-06-30T21:48:12.432Z,6.28
2023-06-30T21:50:40.928Z,6.82
2023-06-30T21:53:08.143Z,6.22
2023-06-30T21:55:35.378Z,7.25
2023-06-30T21:58:06.456Z,5.72
2023-06-30T22:00:38.581Z,6.40
2023-06-30T22:03:07.038Z,6.22
2023-06-30T22:05:34.216Z,6.20
2023-06-30T22:08:01.301Z,6.43
2023-06-30T22:10:28.399Z,6.20
2023-06-30T22:12:55.441Z,6.40
2023-06-30T22:15:24.461Z,6.85
2023-06-30T22:17:52.584Z,6.32
2023-06-30T22:20:21.164Z,6.20
2023-06-30T22:22:48.724Z,5.80
2023-06-30T22:25:17.450Z,6.68
2023-06-30T22:27:44.919Z,5.78
2023-06-30T22:30:12.775Z,6.53
2023-06-30T22:32:40.080Z,6.45
2023-06-30T22:35:07.476Z,6.43
2023-06-30T22:37:34.737Z,6.88
2023-06-30T22:40:01.767Z,6.25
2023-06-30T22:42:28.832Z,6.50
2023-06-30T22:44:55.905Z,6.50
2023-06-30T22:47:22.961Z,6.88
2023-06-30T22:49:50.001Z,6.25
2023-06-30T22:52:17.077Z,6.38
2023-06-30T22:54:44.532Z,7.75
2023-06-30T22:57:11.778Z,7.05
2023-06-30T22:59:38.978Z,6.90
2023-06-30T23:02:06.392Z,6.25
2023-06-30T23:04:33.486Z,5.97
2023-06-30T23:07:00.559Z,6.57
2023-06-30T23:09:27.669Z,5.85
2023-06-30T23:11:54.736Z,6.85
2023-06-30T23:14:22.475Z,5.82
2023-06-30T23:16:49.942Z,6.07
2023-06-30T23:19:17.127Z,7.03
2023-06-30T23:21:47.300Z,6.32
2023-06-30T23:24:14.541Z,6.55
2023-06-30T23:26:41.945Z,6.72
2023-06-30T23:29:11.620Z,6.43
2023-06-30T23:31:42.328Z,7.07
2023-06-30T23:34:09.615Z,7.55
2023-06-30T23:36:37.543Z,7.45
2023-06-30T23:39:04.748Z,6.53
2023-06-30T23:41:31.859Z,6.75
2023-06-30T23:43:58.988Z,7.18
2023-06-30T23:46:26.080Z,7.32
2023-06-30T23:48:53.254Z,7.00
2023-06-30T23:51:21.306Z,6.55
2023-06-30T23:53:48.376Z,6.57
2023-06-30T23:56:15.561Z,7.00
2023-06-30T23:58:42.637Z,6.00
